Reno (UNR), Valley Road, Nevada Weather observations

Data are for observation ending at time listed.
 Day   Time    Ave.   Ave.  Ave.  Vector   Max.    Total    Solar   Rl      Baro.   Ave.  
  of    of     Air    Rel.  Wind   Wind    Wind   Precip.   Rad.    in      Pres.   Soil  
Year   Day     Temp.  Hum.  Speed  Dir.    Gust                                     Temp. 
2026   (PST)    F      %     mph   deg.    mph      in.     W/m2    W/m2     mb.     F   
-----------------------------------------------------------------------------------------
 129    7:00   65.3    43    2.5   112      4.1     0.00     360     323    866.9   64.1
 129    7:10   64.7    43    1.5   102      3.4     0.00     396     325    866.9   64.1
 129    7:20   65.3    42    1.5    56      3.3     0.00     431     329    866.8   64.1
 129    7:30   64.5    43    1.8    42      3.3     0.00     467     332    866.9   64.2
 129    7:40   67.7    38    1.6   196      3.9     0.00     501     334    866.9   64.2
 129    7:50   67.4    37    1.7   232      3.7     0.00     534     338    866.8   64.3
 129    8:00   68.9    35    1.5    68      5.6     0.00     569     342    866.8   64.4
 129    8:10   67.9    35    2.6    65      5.2     0.00     603     346    866.8   64.5
 129    8:20   68.1    34    2.4    98      4.7     0.00     635     346    866.7   64.7
 129    8:30   67.5    34    3.0    25      5.7     0.00     669     347    866.7   64.9
 129    8:40   69.3    32    3.0    92      6.8     0.00     699     349    866.6   65.1
 129    8:50   72.9    29    1.6   138      4.1     0.00     729     350    866.6   65.3
 129    9:00   73.4    27    2.1    99      7.2     0.00     760     356    866.6   65.5
 129    9:10   72.6    25    3.0    58      6.7     0.00     787     359    866.6   65.7
 129    9:20   71.8    25    3.9    86      8.4     0.00     815     360    866.5   65.9
 129    9:30   74.0    24    4.0   136      8.6     0.00     840     359    866.4   66.0
 129    9:40   74.7    22    4.7   118      9.3     0.00     864     359    866.5   66.1
 129    9:50   74.9    22    5.7   118     16.1     0.00     889     363    866.4   66.2
 129   10:00   75.5    21    4.2   145      9.4     0.00     910     362    866.5   66.3
 129   10:10   76.6    20    3.5   147      6.9     0.00     929     363    866.3   66.3
 129   10:20   76.6    18    4.9    76     15.0     0.00     949     366    866.4   66.4
 129   10:30   75.7    19    6.7    80     12.9     0.00     966     370    866.2   66.5
 129   10:40   77.6    19    6.0   166     12.4     0.00     981     366    866.2   66.7
 129   10:50   78.7    18    5.9   147      9.9     0.00     995     369    865.9   66.9
 129   11:00   79.6    18    3.9   164      7.8     0.00    1007     370    865.9   67.2
 129   11:10   79.9    17    2.8   168      8.2     0.00    1019     374    865.7   67.5
 129   11:20   77.7    17    3.7    25      9.1     0.00    1026     377    865.6   67.9
 129   11:30   79.4    18    5.2   231     11.2     0.00    1034     378    865.5   68.3
 129   11:40   80.5    17    3.6   222      8.3     0.00    1038     380    865.4   68.8
 129   11:50   81.2    17    3.1   191      7.6     0.00    1042     381    865.3   69.2
 129   12:00   80.6    16    3.7   115      8.8     0.00    1042     382    865.0   69.7
 129   12:10   81.7    16    5.2   195     11.7     0.00    1040     384    864.9   70.1
 129   12:20   82.3    16    6.4   150     13.0     0.00    1038     381    864.8   70.6
 129   12:30   82.5    15    3.8   205     10.6     0.00    1038     383    864.8   71.0
 129   12:40   82.9    15    4.9   215     11.0     0.00    1032     385    864.6   71.5
 129   12:50   83.7    15    6.7   174     11.5     0.00    1022     387    864.5   71.9
 129   13:00   83.9    15    4.4   188      9.2     0.00    1014     385    864.4   72.4
 129   13:10   82.1    14    4.9    52     10.9     0.00    1004     387    864.4   72.8
 129   13:20   82.0    14    5.3    73     11.4     0.00     992     385    864.4   73.1
 129   13:30   81.7    14    4.0    78      9.5     0.00     979     384    864.2   73.4
 129   13:40   82.6    14    6.7    82     13.2     0.00     963     386    864.2   73.7
 129   13:50   84.3    13    4.9   186      9.7     0.00     946     384    864.0   74.0
 129   14:00   85.6    13    4.6   193      9.9     0.00     926     385    864.0   74.2
 129   14:10   83.9    13    4.5    62     12.1     0.00     906     386    863.9   74.4
 129   14:20   84.2    13    6.7   144     13.7     0.00     884     384    863.9   74.6
 129   14:30   84.8    13    4.7   139     10.5     0.00     861     384    863.7   74.7
 129   14:40   84.6    13    4.7   144      9.9     0.00     839     384    863.6   74.9
 129   14:50   85.0    12    4.9   178      9.9     0.00     806     384    863.4   75.1
 129   15:00   85.8    12    4.0   183      8.8     0.00     786     384    863.2   75.3
 129   15:10   87.0    12    2.9   211      7.1     0.00     758     384    863.2   75.5
 129   15:20   86.6    12    5.1   123      9.7     0.00     729     388    863.1   75.8
 129   15:30   85.0    12    5.5   100     10.1     0.00     686     385    863.1   76.0
 129   15:40   86.0    12    3.7   156      7.9     0.00     664     381    863.0   76.2
 129   15:50   87.3    12    4.5   204     10.5     0.00     635     384    863.0   76.3
 129   16:00   86.5    12    4.6   126     14.0     0.00     596     382    862.8   76.5
 129   16:10   84.9    12    5.2    78      9.5     0.00     569     384    862.9   76.7
 129   16:20   85.6    12    3.3   100      7.2     0.00     537     382    862.8   76.8
 129   16:30   85.4    12    4.8   107      8.2     0.00     495     380    862.8   77.0
 129   16:40   86.6    11    3.0   252      6.0     0.00     440     379    862.8   77.1
 129   16:50   84.4    11    3.5     5      7.8     0.00     425     377    862.8   77.2
 129   17:00   83.8    12    6.0    49     10.1     0.00     399     378    862.8   77.3
 129   17:10   83.2    11    4.2   351      8.4     0.00     358     375    862.6   77.3
 129   17:20   83.7    11    4.4    32      9.8     0.00     317     375    862.7   77.4
 129   17:30   83.7    11    3.7    97      8.5     0.00     282     371    862.6   77.4
 129   17:40   84.7    11    3.3    66      6.8     0.00     238     372    862.6   77.4
 129   17:50   83.0    11    3.9    31      7.8     0.00     210     367    862.5   77.4
 129   18:00   82.8    11    3.8    73      7.8     0.00     173     364    862.5   77.4
 129   18:10   82.5    11    4.7   105      8.5     0.00     144     365    862.5   77.3
 129   18:20   82.2    11    3.2    96      5.2     0.00      87     361    862.5   77.3
 129   18:30   80.7    12    2.2    42      4.1     0.00      55     360    862.5   77.2
 129   18:40   79.1    13    4.0    26     10.4     0.00      25     359    862.6   77.1
 129   18:50   77.2    15    4.7     8      8.8     0.00      18     355    862.7   76.9
 129   19:00   75.9    16    3.8     8      6.4     0.00      11     355    862.7   76.8
 129   19:10   74.9    17    4.3     5      6.1     0.00       4     351    862.9   76.7
 129   19:20   74.0    17    3.6   359      5.0     0.00       1     347    862.9   76.5
 129   19:30   73.3    17    3.5     1      6.0     0.00       0     349    863.1   76.3
 129   19:40   72.8    17    3.0     0      4.8     0.00       0     348    863.1   76.1
 129   19:50   72.3    17    0.9     5      2.8     0.00       0     343    863.3   75.9
 129   20:00   71.3    18    3.0   198      4.5     0.00       0     340    863.4   75.7
 129   20:10   70.6    20    2.6   196      4.5     0.00       0     340    863.6   75.5
 129   20:20   68.8    22    3.1   305      4.5     0.00       0     335    863.7   75.3
 129   20:30   67.3    24    1.6   293      4.8     0.00       0     335    863.8   75.1
 129   20:40   66.5    26    1.8   269      2.4     0.00       0     332    863.9   74.9
 129   20:50   64.8    28    1.9   292      3.3     0.00       0     328    864.0   74.6
 129   21:00   65.5    26    2.3   282      3.8     0.00       0     326    864.0   74.4
 129   21:10   63.5    30    2.0   291      3.8     0.00       0     326    864.0   74.2
 129   21:20   63.4    28    2.2   270      4.5     0.00       0     327    864.1   74.0
 129   21:30   63.4    29    1.8   254      2.7     0.00       0     326    864.1   73.8
 129   21:40   62.2    29    2.0   299      3.1     0.00       0     325    864.1   73.5
 129   21:50   60.9    31    1.7   260      2.9     0.00       0     322    864.2   73.3
 129   22:00   60.9    30    2.2   261      3.7     0.00       0     320    864.2   73.1
 129   22:10   59.8    32    1.6   315      3.8     0.00       0     317    864.3   72.9
 129   22:20   59.6    33    2.2   285      5.0     0.00       0     316    864.4   72.7
 129   22:30   58.7    33    1.6   314      2.4     0.00       0     314    864.4   72.5
 129   22:40   58.4    36    1.9   260      2.8     0.00       0     313    864.5   72.2
 129   22:50   58.3    37    2.1   283      3.3     0.00       0     312    864.5   72.0
 129   23:00   58.3    38    1.9   267      4.5     0.00       0     312    864.5   71.8
 129   23:10   57.4    39    1.5   261      2.9     0.00       0     311    864.5   71.6
 129   23:20   57.3    41    3.1   263      5.9     0.00       0     309    864.7   71.4
 129   23:30   57.3    40    2.5   271      4.3     0.00       0     310    864.7   71.2
 129   23:40   57.1    40    2.1   269      3.7     0.00       0     308    864.7   71.0
 129   23:50   56.6    41    4.0   254      6.0     0.00       0     308    864.6   70.8
 130    0:00   55.8    42    3.0   231      5.6     0.00       0     308    864.7   70.6
 130    0:10   55.9    42    2.4   274      3.4     0.00       0     306    864.7   70.4
 130    0:20   55.5    43    2.1   256      4.5     0.00       0     305    864.7   70.3
 130    0:30   54.3    44    0.5   312      2.0     0.00       0     307    864.7   70.1
 130    0:40   53.5    45    1.7     1      3.3     0.00       0     304    864.8   69.9
 130    0:50   53.2    46    2.6   300      3.7     0.00       0     304    864.8   69.7
 130    1:00   52.2    48    3.1   302      4.5     0.00       0     303    864.8   69.6
 130    1:10   52.0    49    2.2   292      4.0     0.00       0     302    864.6   69.4
 130    1:20   51.4    50    1.1   214      2.3     0.00       0     300    864.7   69.2
 130    1:30   50.6    51    0.4   246      1.7     0.00       0     296    864.6   69.0
 130    1:40   50.6    50    1.0   341      2.4     0.00       0     295    864.8   68.9
 130    1:50   51.4    48    2.0   308      2.9     0.00       0     295    864.7   68.7
 130    2:00   51.4    48    1.5   298      2.6     0.00       0     296    864.8   68.5
 130    2:10   50.9    50    2.2   339      3.4     0.00       0     295    864.7   68.4
 130    2:20   50.9    49    1.8   300      2.6     0.00       0     295    864.9   68.2
 130    2:30   50.4    51    1.1   307      2.5     0.00       0     294    864.8   68.0
 130    2:40   50.0    52    2.6   290      5.1     0.00       0     294    864.8   67.9
 130    2:50   51.5    52    2.1   277      4.3     0.00       0     297    864.8   67.7
 130    3:00   51.1    53    2.4   297      3.6     0.00       0     297    864.8   67.6
 130    3:10   49.5    54    2.1   310      2.7     0.00       0     294    864.9   67.4
 130    3:20   48.4    57    2.5   312      3.0     0.00       0     293    864.8   67.2
 130    3:30   48.6    57    1.8   299      2.8     0.00       0     295    864.9   67.1
 130    3:40   47.8    58    2.0   315      2.6     0.00       0     296    864.7   66.9
 130    3:50   47.4    59    2.4   300      3.9     0.00       0     295    864.9   66.8
 130    4:00   49.2    56    3.0   290      4.2     0.00       0     292    864.8   66.7
 130    4:10   49.1    56    2.2   313      3.0     0.00       0     292    864.8   66.5
 130    4:20   48.2    58    0.5   287      2.6     0.00       0     295    864.7   66.3
 130    4:30   47.5    60    1.4   323      1.9     0.00       0     294    864.7   66.2
 130    4:40   46.6    60    2.1   332      2.9     0.00       1     293    864.7   66.1
 130    4:50   46.3    60    1.8   331      2.6     0.00       3     292    864.6   65.9
 130    5:00   45.9    60    0.9   316      1.8     0.00       8     289    864.6   65.8
 130    5:10   45.5    60    1.9   321      2.3     0.00      18     289    864.5   65.6
 130    5:20   46.5    58    1.9   326      3.1     0.00      39     290    864.7   65.5
 130    5:30   48.2    56    2.0   317      3.0     0.00      67     292    864.5   65.4
 130    5:40   50.9    54    0.8   308      2.7     0.00     104     293    864.7   65.2
 130    5:50   53.2    50    1.1   323      1.9     0.00     137     296    864.8   65.1
 130    6:00   54.4    48    1.6   281      3.1     0.00     167     300    865.0   65.0
 130    6:10   55.7    44    1.6   273      2.8     0.00     200     303    865.0   64.9
 130    6:20   57.8    42    1.0   257      1.8     0.00     233     306    865.0   64.8
 130    6:30   60.3    37    1.2   262      2.8     0.00     266     313    865.1   64.7
 130    6:40   61.8    35    1.6   234      3.0     0.00     302     316    865.1   64.6
 130    6:50   62.8    33    1.1   269      2.7     0.00     335     319    865.1   64.6

Return to Reno (UNR), Nevada graphs page.


Western Regional Climate Center,wrcc@dri.edu